TimeEST,TemperatureF,Dew PointF,Humidity,Sea Level PressureIn,VisibilityMPH,Wind Direction,Wind SpeedMPH,Gust SpeedMPH,PrecipitationIn,Events,Conditions,WindDirDegrees,DateUTC
12:56 AM,45.0,28.0,52,30.10,10.0,NNW,10.4,-,N/A,,Clear,340,2012-11-09 05:56:00
1:56 AM,44.1,28.0,53,30.11,10.0,NNW,9.2,-,N/A,,Clear,340,2012-11-09 06:56:00
2:56 AM,45.0,28.0,52,30.13,10.0,Variable,4.6,-,N/A,,Clear,0,2012-11-09 07:56:00
3:56 AM,43.0,28.0,56,30.14,10.0,North,5.8,-,N/A,,Clear,360,2012-11-09 08:56:00
4:56 AM,42.1,28.9,60,30.16,10.0,North,5.8,-,N/A,,Clear,360,2012-11-09 09:56:00
5:56 AM,39.9,28.9,65,30.17,10.0,North,4.6,-,N/A,,Clear,10,2012-11-09 10:56:00
6:56 AM,37.9,30.0,73,30.19,10.0,Calm,Calm,-,N/A,,Clear,0,2012-11-09 11:56:00
7:56 AM,44.1,30.9,60,30.22,10.0,North,5.8,-,N/A,,Clear,10,2012-11-09 12:56:00
8:56 AM,48.0,30.0,50,30.23,10.0,North,8.1,17.3,N/A,,Clear,350,2012-11-09 13:56:00
9:56 AM,50.0,30.0,46,30.24,10.0,North,18.4,24.2,N/A,,Clear,360,2012-11-09 14:56:00
10:56 AM,54.0,30.0,40,30.25,10.0,North,15.0,23.0,N/A,,Clear,350,2012-11-09 15:56:00
11:56 AM,55.0,28.9,37,30.22,10.0,North,15.0,24.2,N/A,,Clear,360,2012-11-09 16:56:00
12:56 PM,57.0,30.0,36,30.21,10.0,North,9.2,-,N/A,,Clear,10,2012-11-09 17:56:00
1:56 PM,57.9,30.9,36,30.20,10.0,NW,6.9,-,N/A,,Clear,320,2012-11-09 18:56:00
2:56 PM,59.0,32.0,36,30.19,10.0,NW,9.2,-,N/A,,Clear,320,2012-11-09 19:56:00
3:56 PM,59.0,32.0,36,30.19,10.0,Calm,Calm,-,N/A,,Clear,0,2012-11-09 20:56:00
4:56 PM,53.1,37.9,57,30.19,10.0,Calm,Calm,-,N/A,,Clear,0,2012-11-09 21:56:00
5:56 PM,50.0,37.0,61,30.21,10.0,NW,3.5,-,N/A,,Clear,310,2012-11-09 22:56:00
6:56 PM,48.0,41.0,77,30.22,10.0,Calm,Calm,-,N/A,,Clear,0,2012-11-09 23:56:00
7:56 PM,45.0,36.0,71,30.23,10.0,WNW,5.8,-,N/A,,Clear,300,2012-11-10 00:56:00
8:56 PM,43.0,36.0,76,30.25,10.0,WNW,5.8,-,N/A,,Clear,300,2012-11-10 01:56:00
9:56 PM,42.1,35.1,76,30.25,10.0,NW,3.5,-,N/A,,Clear,310,2012-11-10 02:56:00
10:56 PM,41.0,35.1,79,30.25,10.0,WNW,4.6,-,N/A,,Clear,300,2012-11-10 03:56:00
11:56 PM,39.0,35.1,86,30.26,10.0,WNW,5.8,-,N/A,,Clear,300,2012-11-10 04:56:00